createdAt,value
2022-09-03T00:00:09.187Z,994.95
2022-09-03T00:01:09.149Z,994.87
2022-09-03T00:02:09.209Z,994.94
2022-09-03T00:03:09.217Z,994.84
2022-09-03T00:04:09.118Z,994.83
2022-09-03T00:05:09.101Z,994.84
2022-09-03T00:06:09.109Z,994.80
2022-09-03T00:07:09.080Z,994.83
2022-09-03T00:08:09.068Z,994.84
2022-09-03T00:09:09.059Z,994.85
2022-09-03T00:10:09.038Z,994.83
2022-09-03T00:11:09.029Z,994.80
2022-09-03T00:12:09.044Z,994.80
2022-09-03T00:13:09.008Z,994.78
2022-09-03T00:14:08.996Z,994.79
2022-09-03T00:15:08.980Z,994.76
2022-09-03T00:16:08.993Z,994.74
2022-09-03T00:17:08.994Z,994.77
2022-09-03T00:18:08.941Z,994.81
2022-09-03T00:19:08.946Z,994.79
2022-09-03T00:20:08.921Z,994.81
2022-09-03T00:21:08.911Z,994.83
2022-09-03T00:22:08.901Z,994.78
2022-09-03T00:23:08.952Z,994.76
2022-09-03T00:24:14.120Z,994.75
2022-09-03T00:25:09.871Z,994.75
2022-09-03T00:26:08.851Z,994.82
2022-09-03T00:27:08.844Z,994.73
2022-09-03T00:28:08.836Z,994.77
2022-09-03T00:29:08.877Z,994.75
2022-09-03T00:30:08.811Z,994.73
2022-09-03T00:31:08.847Z,994.78
2022-09-03T00:32:08.772Z,994.76
2022-09-03T00:33:08.775Z,994.83
2022-09-03T00:34:08.759Z,994.82
2022-09-03T00:35:08.774Z,994.80
2022-09-03T00:36:08.744Z,994.81
2022-09-03T00:37:14.240Z,994.86
2022-09-03T00:38:09.713Z,994.85
2022-09-03T00:39:08.705Z,994.86
2022-09-03T00:40:08.687Z,994.82
2022-09-03T00:41:08.705Z,994.77
2022-09-03T00:42:08.656Z,994.82
2022-09-03T00:43:08.666Z,994.75
2022-09-03T00:44:08.634Z,994.74
2022-09-03T00:45:08.631Z,994.85
2022-09-03T00:46:08.683Z,994.87
2022-09-03T00:47:08.606Z,994.84
2022-09-03T00:48:08.596Z,994.88
2022-09-03T00:49:08.587Z,994.87
2022-09-03T00:50:08.575Z,994.82
2022-09-03T00:51:08.555Z,994.80
2022-09-03T00:52:08.587Z,994.81
2022-09-03T00:53:08.537Z,994.87
2022-09-03T00:54:08.525Z,994.85
2022-09-03T00:55:08.515Z,994.88
2022-09-03T00:56:08.508Z,994.88
2022-09-03T00:57:08.569Z,994.83
2022-09-03T00:58:08.488Z,994.86
2022-09-03T00:59:08.470Z,994.83
2022-09-03T01:00:08.459Z,994.89
2022-09-03T01:01:08.525Z,994.79
2022-09-03T01:02:08.511Z,994.74
2022-09-03T01:03:08.461Z,994.83
2022-09-03T01:04:08.407Z,994.81
2022-09-03T01:05:08.393Z,994.75
2022-09-03T01:06:08.389Z,994.81
2022-09-03T01:07:08.392Z,994.73
2022-09-03T01:08:08.379Z,994.76
2022-09-03T01:09:08.460Z,994.78
2022-09-03T01:10:08.342Z,994.78
2022-09-03T01:11:08.328Z,994.80
2022-09-03T01:12:08.319Z,994.76
2022-09-03T01:13:08.300Z,994.73
2022-09-03T01:14:08.321Z,994.75
2022-09-03T01:15:08.279Z,994.77
2022-09-03T01:16:08.321Z,994.82
2022-09-03T01:17:08.276Z,994.79
2022-09-03T01:18:08.261Z,994.78
2022-09-03T01:19:08.233Z,994.77
2022-09-03T01:20:08.276Z,994.77
2022-09-03T01:21:08.211Z,994.81
2022-09-03T01:22:08.202Z,994.81
2022-09-03T01:23:08.181Z,994.88
2022-09-03T01:24:08.183Z,994.80
2022-09-03T01:25:08.179Z,994.84
2022-09-03T01:26:08.204Z,994.91
2022-09-03T01:27:08.152Z,994.89
2022-09-03T01:28:08.134Z,994.88
2022-09-03T01:29:08.123Z,994.84
2022-09-03T01:30:08.117Z,994.84
2022-09-03T01:31:08.240Z,994.78
2022-09-03T01:32:08.092Z,994.78
2022-09-03T01:33:08.074Z,994.78
2022-09-03T01:34:08.064Z,994.77
2022-09-03T01:35:08.059Z,994.75
2022-09-03T01:36:08.043Z,994.78
2022-09-03T01:37:08.053Z,994.78
2022-09-03T01:38:08.033Z,994.76
2022-09-03T01:39:08.004Z,994.79
2022-09-03T01:40:07.996Z,994.72
2022-09-03T01:41:07.982Z,994.74
2022-09-03T01:42:07.994Z,994.74
2022-09-03T01:43:07.955Z,994.71
2022-09-03T01:44:07.953Z,994.73
2022-09-03T01:45:07.938Z,994.73
2022-09-03T01:46:07.998Z,994.77
2022-09-03T01:47:07.916Z,994.72
2022-09-03T01:48:07.926Z,994.75
2022-09-03T01:49:07.905Z,994.75
2022-09-03T01:50:07.875Z,994.72
2022-09-03T01:51:07.871Z,994.74
2022-09-03T01:52:07.872Z,994.70
2022-09-03T01:53:07.876Z,994.69
2022-09-03T01:54:07.837Z,994.70
2022-09-03T01:55:07.816Z,994.70
2022-09-03T01:56:07.817Z,994.68
2022-09-03T01:57:19.125Z,994.72
2022-09-03T01:58:08.815Z,994.73
2022-09-03T01:59:07.776Z,994.72
2022-09-03T02:00:07.778Z,994.75
2022-09-03T02:01:07.827Z,994.68
2022-09-03T02:02:07.738Z,994.78
2022-09-03T02:03:07.738Z,994.72
2022-09-03T02:04:07.739Z,994.71
2022-09-03T02:05:07.707Z,994.76
2022-09-03T02:06:07.708Z,994.74
2022-09-03T02:07:07.693Z,994.70
2022-09-03T02:08:07.720Z,994.72
2022-09-03T02:09:07.668Z,994.74
2022-09-03T02:10:07.688Z,994.70
2022-09-03T02:11:07.637Z,994.69
2022-09-03T02:12:07.622Z,994.67
2022-09-03T02:13:07.620Z,994.67
2022-09-03T02:14:07.613Z,994.62
2022-09-03T02:15:07.587Z,994.63
2022-09-03T02:16:07.753Z,994.61
2022-09-03T02:17:07.563Z,994.71
2022-09-03T02:18:07.560Z,994.70
2022-09-03T02:19:07.539Z,994.68
2022-09-03T02:20:07.541Z,994.71
2022-09-03T02:21:07.560Z,994.72
2022-09-03T02:22:07.501Z,994.74
2022-09-03T02:23:07.522Z,994.68
2022-09-03T02:24:07.486Z,994.68
2022-09-03T02:25:07.486Z,994.71
2022-09-03T02:26:07.452Z,994.66
2022-09-03T02:27:07.470Z,994.68
2022-09-03T02:28:07.931Z,994.73
2022-09-03T02:29:08.432Z,994.65
2022-09-03T02:30:07.415Z,994.73
2022-09-03T02:31:07.446Z,994.73
2022-09-03T02:32:07.404Z,994.64
2022-09-03T02:33:07.501Z,994.72
2022-09-03T02:34:07.385Z,994.66
2022-09-03T02:35:07.362Z,994.68
2022-09-03T02:36:07.355Z,994.68
2022-09-03T02:37:07.337Z,994.69
2022-09-03T02:38:07.322Z,994.69
2022-09-03T02:39:07.332Z,994.66
2022-09-03T02:40:07.362Z,994.68
2022-09-03T02:41:07.295Z,994.75
2022-09-03T02:42:07.283Z,994.66
2022-09-03T02:43:07.273Z,994.70
2022-09-03T02:44:07.322Z,994.71
2022-09-03T02:45:07.244Z,994.72
2022-09-03T02:46:07.263Z,994.79
2022-09-03T02:47:07.225Z,994.73
2022-09-03T02:48:07.216Z,994.77
2022-09-03T02:49:07.195Z,994.73
2022-09-03T02:50:07.247Z,994.70
2022-09-03T02:51:14.080Z,994.69
2022-09-03T02:52:08.175Z,994.71
2022-09-03T02:53:07.158Z,994.72
2022-09-03T02:54:07.137Z,994.70
2022-09-03T02:55:07.135Z,994.69
2022-09-03T02:56:07.144Z,994.67
2022-09-03T02:57:07.107Z,994.69
2022-09-03T02:58:07.095Z,994.63
2022-09-03T02:59:07.086Z,994.71
2022-09-03T03:00:07.097Z,994.64
2022-09-03T03:01:07.063Z,994.72
2022-09-03T03:02:07.094Z,994.68
2022-09-03T03:03:07.032Z,994.75
2022-09-03T03:04:07.017Z,994.73
2022-09-03T03:05:07.006Z,994.72
2022-09-03T03:06:06.998Z,994.72
2022-09-03T03:07:07.007Z,994.70
2022-09-03T03:08:06.986Z,994.70
2022-09-03T03:09:06.974Z,994.67
2022-09-03T03:10:06.952Z,994.69
2022-09-03T03:11:06.948Z,994.62
2022-09-03T03:12:06.930Z,994.68
2022-09-03T03:13:06.938Z,994.63
2022-09-03T03:14:06.914Z,994.67
2022-09-03T03:15:06.921Z,994.64
2022-09-03T03:16:06.890Z,994.64
2022-09-03T03:17:06.910Z,994.59
2022-09-03T03:18:06.890Z,994.63
2022-09-03T03:19:06.850Z,994.62
2022-09-03T03:20:06.839Z,994.59
2022-09-03T03:21:06.820Z,994.59
2022-09-03T03:22:06.823Z,994.63
2022-09-03T03:23:06.803Z,994.63
2022-09-03T03:24:06.828Z,994.60
2022-09-03T03:25:06.778Z,994.61
2022-09-03T03:26:06.771Z,994.64
2022-09-03T03:27:06.754Z,994.61
2022-09-03T03:28:06.751Z,994.63
2022-09-03T03:29:06.730Z,994.56
2022-09-03T03:30:06.744Z,994.63
2022-09-03T03:31:06.747Z,994.63
2022-09-03T03:32:06.700Z,994.64
2022-09-03T03:33:06.682Z,994.63
2022-09-03T03:34:06.680Z,994.60
2022-09-03T03:35:06.651Z,994.62
2022-09-03T03:36:06.684Z,994.59
2022-09-03T03:37:06.641Z,994.58
2022-09-03T03:38:06.631Z,994.60
2022-09-03T03:39:06.616Z,994.64
2022-09-03T03:40:06.617Z,994.63
2022-09-03T03:41:06.595Z,994.62
2022-09-03T03:42:06.670Z,994.65
2022-09-03T03:43:06.578Z,994.65
2022-09-03T03:44:06.559Z,994.58
2022-09-03T03:45:06.583Z,994.57
2022-09-03T03:46:06.594Z,994.61
2022-09-03T03:47:06.544Z,994.58
2022-09-03T03:48:06.553Z,994.58
2022-09-03T03:49:06.506Z,994.58
2022-09-03T03:50:06.516Z,994.65
2022-09-03T03:51:06.495Z,994.64
2022-09-03T03:52:06.474Z,994.58
2022-09-03T03:53:06.467Z,994.56
2022-09-03T03:54:06.494Z,994.56
2022-09-03T03:55:06.437Z,994.52
2022-09-03T03:56:06.424Z,994.50
2022-09-03T03:57:07.356Z,994.55
2022-09-03T03:58:06.415Z,994.46
2022-09-03T03:59:06.449Z,994.53
2022-09-03T04:00:06.403Z,994.51
2022-09-03T04:01:06.467Z,994.49
2022-09-03T04:02:06.374Z,994.44
2022-09-03T04:03:06.346Z,994.47
2022-09-03T04:04:06.336Z,994.52
2022-09-03T04:05:06.338Z,994.46
2022-09-03T04:06:06.321Z,994.47
2022-09-03T04:07:06.316Z,994.52
2022-09-03T04:08:06.300Z,994.55
2022-09-03T04:09:06.266Z,994.47
2022-09-03T04:10:06.246Z,994.49
2022-09-03T04:11:06.267Z,994.44
2022-09-03T04:12:06.240Z,994.43
2022-09-03T04:13:06.217Z,994.44
2022-09-03T04:14:06.208Z,994.44
2022-09-03T04:15:06.197Z,994.36
2022-09-03T04:16:06.190Z,994.46
2022-09-03T04:17:06.198Z,994.42
2022-09-03T04:18:06.162Z,994.39
2022-09-03T04:19:06.158Z,994.42
2022-09-03T04:20:06.149Z,994.41
2022-09-03T04:21:06.130Z,994.37
2022-09-03T04:22:06.118Z,994.35
2022-09-03T04:23:06.124Z,994.39
2022-09-03T04:24:06.088Z,994.36
2022-09-03T04:25:06.096Z,994.27
2022-09-03T04:26:06.072Z,994.30
2022-09-03T04:27:06.075Z,994.22
2022-09-03T04:28:06.083Z,994.26
2022-09-03T04:29:06.031Z,994.27
2022-09-03T04:30:06.032Z,994.28
2022-09-03T04:31:06.076Z,994.29
2022-09-03T04:32:06.009Z,994.32
2022-09-03T04:33:05.992Z,994.27
2022-09-03T04:34:06.020Z,994.23
2022-09-03T04:35:05.961Z,994.24
2022-09-03T04:36:05.953Z,994.21
2022-09-03T04:37:05.940Z,994.24
2022-09-03T04:38:05.943Z,994.26
2022-09-03T04:39:05.911Z,994.23
2022-09-03T04:40:05.987Z,994.26
2022-09-03T04:41:05.912Z,994.30
2022-09-03T04:42:05.922Z,994.29
2022-09-03T04:43:05.923Z,994.39
2022-09-03T04:44:05.862Z,994.28
2022-09-03T04:45:05.855Z,994.34
2022-09-03T04:46:05.893Z,994.33
2022-09-03T04:47:05.824Z,994.32
2022-09-03T04:48:05.868Z,994.32
2022-09-03T04:49:05.804Z,994.40
2022-09-03T04:50:05.793Z,994.33
2022-09-03T04:51:05.787Z,994.33
2022-09-03T04:52:05.806Z,994.31
2022-09-03T04:53:08.004Z,994.36
2022-09-03T04:54:05.758Z,994.34
2022-09-03T04:55:05.736Z,994.34
2022-09-03T04:56:05.714Z,994.35
2022-09-03T04:57:05.705Z,994.35
2022-09-03T04:58:05.756Z,994.34
2022-09-03T04:59:05.956Z,994.34
2022-09-03T05:00:05.674Z,994.30
2022-09-03T05:01:05.682Z,994.39
2022-09-03T05:02:05.699Z,994.33
2022-09-03T05:03:05.644Z,994.31
2022-09-03T05:04:05.648Z,994.25
2022-09-03T05:05:05.616Z,994.40
2022-09-03T05:06:05.607Z,994.40
2022-09-03T05:07:05.604Z,994.41
2022-09-03T05:08:05.578Z,994.42
2022-09-03T05:09:05.582Z,994.37
2022-09-03T05:10:05.583Z,994.46
2022-09-03T05:11:05.552Z,994.41
2022-09-03T05:12:05.529Z,994.39
2022-09-03T05:13:05.524Z,994.36
2022-09-03T05:14:05.520Z,994.33
2022-09-03T05:15:05.497Z,994.42
2022-09-03T05:16:05.528Z,994.36
2022-09-03T05:17:05.476Z,994.38
2022-09-03T05:18:05.461Z,994.42
2022-09-03T05:19:05.447Z,994.37
2022-09-03T05:20:05.442Z,994.43
2022-09-03T05:21:05.449Z,994.43
2022-09-03T05:22:05.419Z,994.47
2022-09-03T05:23:05.398Z,994.41
2022-09-03T05:24:05.397Z,994.39
2022-09-03T05:25:05.392Z,994.45
2022-09-03T05:26:05.406Z,994.44
2022-09-03T05:27:05.383Z,994.43
2022-09-03T05:28:05.394Z,994.43
2022-09-03T05:29:05.331Z,994.46
2022-09-03T05:30:05.319Z,994.44
2022-09-03T05:31:05.300Z,994.44
2022-09-03T05:32:05.333Z,994.43
2022-09-03T05:33:05.308Z,994.50
2022-09-03T05:34:05.279Z,994.44
2022-09-03T05:35:05.262Z,994.47
2022-09-03T05:36:05.251Z,994.50
2022-09-03T05:37:05.242Z,994.51
2022-09-03T05:38:05.244Z,994.49
2022-09-03T05:39:05.221Z,994.47
2022-09-03T05:40:05.199Z,994.53
2022-09-03T05:41:05.201Z,994.49
2022-09-03T05:42:05.183Z,994.50
2022-09-03T05:43:08.410Z,994.52
2022-09-03T05:44:05.246Z,994.53
2022-09-03T05:45:05.144Z,994.53
2022-09-03T05:46:05.191Z,994.54
2022-09-03T05:47:05.123Z,994.55
2022-09-03T05:48:05.124Z,994.50
2022-09-03T05:49:05.100Z,994.49
2022-09-03T05:50:05.204Z,994.49
2022-09-03T05:51:05.073Z,994.43
2022-09-03T05:52:05.065Z,994.43
2022-09-03T05:53:05.044Z,994.52
2022-09-03T05:54:05.034Z,994.48
2022-09-03T05:55:05.024Z,994.44
2022-09-03T05:56:05.045Z,994.43
2022-09-03T05:57:05.036Z,994.41
2022-09-03T05:58:05.001Z,994.47
2022-09-03T05:59:05.036Z,994.45
2022-09-03T06:00:04.977Z,994.44
2022-09-03T06:01:04.947Z,994.51
2022-09-03T06:02:05.065Z,994.51
2022-09-03T06:03:05.060Z,994.58
2022-09-03T06:04:04.922Z,994.59
2022-09-03T06:05:04.911Z,994.61
2022-09-03T06:06:04.899Z,994.64
2022-09-03T06:07:04.888Z,994.63
2022-09-03T06:08:04.915Z,994.67
2022-09-03T06:09:04.928Z,994.65
2022-09-03T06:10:04.868Z,994.72
2022-09-03T06:11:04.850Z,994.73
2022-09-03T06:12:04.871Z,994.67
2022-09-03T06:13:04.850Z,994.66
2022-09-03T06:14:04.824Z,994.64
2022-09-03T06:15:04.800Z,994.63
2022-09-03T06:16:04.852Z,994.68
2022-09-03T06:17:04.770Z,994.65
2022-09-03T06:18:04.769Z,994.65
2022-09-03T06:19:04.778Z,994.66
2022-09-03T06:20:04.756Z,994.68
2022-09-03T06:21:04.731Z,994.65
2022-09-03T06:22:04.770Z,994.77
2022-09-03T06:23:04.709Z,994.76
2022-09-03T06:24:04.701Z,994.73
2022-09-03T06:25:04.738Z,994.73
2022-09-03T06:26:05.446Z,994.68
2022-09-03T06:27:04.670Z,994.74
2022-09-03T06:28:04.664Z,994.74
2022-09-03T06:29:04.636Z,994.73
2022-09-03T06:30:04.631Z,994.75
2022-09-03T06:31:04.671Z,994.73
2022-09-03T06:32:04.661Z,994.71
2022-09-03T06:33:04.592Z,994.73
2022-09-03T06:34:04.590Z,994.71
2022-09-03T06:35:04.572Z,994.77
2022-09-03T06:36:08.543Z,994.71
2022-09-03T06:37:04.614Z,994.78
2022-09-03T06:38:04.543Z,994.79
2022-09-03T06:39:04.526Z,994.77
2022-09-03T06:40:04.568Z,994.73
2022-09-03T06:41:04.503Z,994.78
2022-09-03T06:42:04.526Z,994.68
2022-09-03T06:43:04.482Z,994.77
2022-09-03T06:44:04.476Z,994.74
2022-09-03T06:45:04.466Z,994.81
2022-09-03T06:46:04.519Z,994.79
2022-09-03T06:47:04.444Z,994.72
2022-09-03T06:48:04.467Z,994.71
2022-09-03T06:49:04.415Z,994.74
2022-09-03T06:50:04.405Z,994.75
2022-09-03T06:51:04.417Z,994.73
2022-09-03T06:52:04.406Z,994.74
2022-09-03T06:53:04.374Z,994.73
2022-09-03T06:54:04.405Z,994.74
2022-09-03T06:55:04.357Z,994.78
2022-09-03T06:56:04.336Z,994.65
2022-09-03T06:57:04.337Z,994.75
2022-09-03T06:58:04.318Z,994.67
2022-09-03T06:59:04.299Z,994.66
2022-09-03T07:00:04.317Z,994.65
2022-09-03T07:01:04.345Z,994.67
2022-09-03T07:02:04.417Z,994.66
2022-09-03T07:03:04.268Z,994.64
2022-09-03T07:04:04.229Z,994.68
2022-09-03T07:05:04.256Z,994.72
2022-09-03T07:06:04.239Z,994.77
2022-09-03T07:07:04.208Z,994.74
2022-09-03T07:08:04.195Z,994.76
2022-09-03T07:09:04.183Z,994.80
2022-09-03T07:10:04.171Z,994.83
2022-09-03T07:11:04.190Z,994.81
2022-09-03T07:12:04.140Z,994.83
2022-09-03T07:13:04.133Z,994.78
2022-09-03T07:14:04.132Z,994.72
2022-09-03T07:15:04.100Z,994.82
2022-09-03T07:16:04.143Z,994.80
2022-09-03T07:17:04.167Z,994.87
2022-09-03T07:18:04.070Z,994.80
2022-09-03T07:19:05.041Z,994.80
2022-09-03T07:20:04.185Z,994.87
2022-09-03T07:21:04.060Z,994.87
2022-09-03T07:22:04.058Z,994.82
2022-09-03T07:23:04.224Z,994.83
2022-09-03T07:24:04.062Z,994.82
2022-09-03T07:25:04.018Z,994.84
2022-09-03T07:26:03.978Z,994.83
2022-09-03T07:27:04.047Z,994.83
2022-09-03T07:28:03.965Z,994.82
2022-09-03T07:29:04.021Z,994.85
2022-09-03T07:30:03.945Z,994.80
2022-09-03T07:31:03.945Z,994.86
2022-09-03T07:32:03.976Z,994.84
2022-09-03T07:33:03.914Z,994.79
2022-09-03T07:34:03.906Z,994.84
2022-09-03T07:35:03.937Z,994.85
2022-09-03T07:36:03.866Z,994.84
2022-09-03T07:37:03.903Z,994.89
2022-09-03T07:38:03.880Z,994.87
2022-09-03T07:39:03.846Z,994.85
2022-09-03T07:40:03.908Z,994.81
2022-09-03T07:41:03.861Z,994.83
2022-09-03T07:42:03.797Z,994.84
2022-09-03T07:43:03.817Z,994.84
2022-09-03T07:44:03.786Z,994.83
2022-09-03T07:45:03.813Z,994.79
2022-09-03T07:46:03.817Z,994.79
2022-09-03T07:47:03.757Z,994.81
2022-09-03T07:48:03.770Z,994.77
2022-09-03T07:49:03.805Z,994.81
2022-09-03T07:50:03.719Z,994.78
2022-09-03T07:51:03.691Z,994.81
2022-09-03T07:52:03.731Z,994.87
2022-09-03T07:53:03.669Z,994.85
2022-09-03T07:54:03.738Z,994.92
2022-09-03T07:55:03.693Z,994.85
2022-09-03T07:56:03.657Z,994.90
2022-09-03T07:57:03.621Z,994.88
2022-09-03T07:58:03.915Z,994.87
2022-09-03T07:59:03.645Z,994.91
2022-09-03T08:00:03.632Z,994.95
2022-09-03T08:01:03.632Z,994.92
2022-09-03T08:02:03.598Z,994.97
2022-09-03T08:03:04.791Z,994.98
2022-09-03T08:04:03.597Z,994.93
2022-09-03T08:05:03.547Z,994.97
2022-09-03T08:06:03.523Z,995.00
2022-09-03T08:07:03.514Z,994.99
2022-09-03T08:08:03.505Z,994.98
2022-09-03T08:09:05.334Z,995.06
2022-09-03T08:10:03.487Z,994.99
2022-09-03T08:11:03.484Z,995.05
2022-09-03T08:12:03.494Z,995.01
2022-09-03T08:13:03.441Z,995.02
2022-09-03T08:14:03.453Z,995.00
2022-09-03T08:15:03.445Z,994.93
2022-09-03T08:16:03.587Z,994.96
2022-09-03T08:17:03.399Z,994.99
2022-09-03T08:18:05.829Z,995.05
2022-09-03T08:19:03.375Z,995.01
2022-09-03T08:20:03.387Z,995.01
2022-09-03T08:21:03.349Z,995.03
2022-09-03T08:22:03.341Z,994.96
2022-09-03T08:23:03.384Z,995.02
2022-09-03T08:24:03.348Z,995.01
2022-09-03T08:25:03.307Z,994.98
2022-09-03T08:26:03.319Z,995.01
2022-09-03T08:27:03.307Z,995.04
2022-09-03T08:28:03.267Z,995.04
2022-09-03T08:29:03.267Z,995.02
2022-09-03T08:30:03.246Z,995.08
2022-09-03T08:31:03.290Z,995.03
2022-09-03T08:32:05.198Z,995.07
2022-09-03T08:33:03.241Z,995.12
2022-09-03T08:34:03.278Z,995.08
2022-09-03T08:35:03.199Z,995.11
2022-09-03T08:36:03.170Z,995.12
2022-09-03T08:37:03.152Z,995.15
2022-09-03T08:38:04.431Z,995.13
2022-09-03T08:39:03.148Z,995.11
2022-09-03T08:40:03.178Z,995.15
2022-09-03T08:41:03.122Z,995.19
2022-09-03T08:42:03.111Z,995.20
2022-09-03T08:43:06.704Z,995.20
2022-09-03T08:44:03.446Z,995.25
2022-09-03T08:45:03.084Z,995.26
2022-09-03T08:46:03.149Z,995.25
2022-09-03T08:47:03.064Z,995.21
2022-09-03T08:48:03.078Z,995.17
2022-09-03T08:49:03.025Z,995.17
2022-09-03T08:50:03.065Z,995.20
2022-09-03T08:51:03.014Z,995.10
2022-09-03T08:52:02.994Z,995.13
2022-09-03T08:53:03.004Z,995.13
2022-09-03T08:54:03.086Z,995.10
2022-09-03T08:55:02.974Z,995.16
2022-09-03T08:56:02.944Z,995.16
2022-09-03T08:57:02.998Z,995.13
2022-09-03T08:58:02.969Z,995.14
2022-09-03T08:59:02.914Z,995.18
2022-09-03T09:00:02.902Z,995.19
2022-09-03T09:01:02.957Z,995.19
2022-09-03T09:02:02.989Z,995.15
2022-09-03T09:03:02.921Z,995.17
2022-09-03T09:04:02.873Z,995.12
2022-09-03T09:05:02.914Z,995.12
2022-09-03T09:06:02.843Z,995.11
2022-09-03T09:07:02.886Z,995.19
2022-09-03T09:08:02.837Z,995.13
2022-09-03T09:09:02.787Z,995.14
2022-09-03T09:10:02.796Z,995.13
2022-09-03T09:11:02.786Z,995.15
2022-09-03T09:12:02.787Z,995.13
2022-09-03T09:13:02.798Z,995.18
2022-09-03T09:14:02.745Z,995.20
2022-09-03T09:15:02.766Z,995.18
2022-09-03T09:16:02.768Z,995.13
2022-09-03T09:17:02.688Z,995.14
2022-09-03T09:18:02.689Z,995.14
2022-09-03T09:19:02.731Z,995.16
2022-09-03T09:20:02.664Z,995.18
2022-09-03T09:21:02.670Z,995.17
2022-09-03T09:22:02.653Z,995.19
2022-09-03T09:23:02.660Z,995.12
2022-09-03T09:24:02.657Z,995.13
2022-09-03T09:25:02.634Z,995.13
2022-09-03T09:26:02.642Z,995.16
2022-09-03T09:27:02.570Z,995.09
2022-09-03T09:28:02.564Z,995.04
2022-09-03T09:29:02.541Z,995.07
2022-09-03T09:30:02.542Z,995.08
2022-09-03T09:31:02.576Z,995.07
2022-09-03T09:32:02.512Z,995.09
2022-09-03T09:33:02.508Z,995.12
2022-09-03T09:34:02.502Z,995.15
2022-09-03T09:35:02.476Z,995.19
2022-09-03T09:36:02.475Z,995.15
2022-09-03T09:37:03.689Z,995.19
2022-09-03T09:38:02.445Z,995.26
2022-09-03T09:39:02.436Z,995.19
2022-09-03T09:40:02.447Z,995.24
2022-09-03T09:41:02.409Z,995.25
2022-09-03T09:42:02.410Z,995.28
2022-09-03T09:43:02.427Z,995.33
2022-09-03T09:44:02.382Z,995.25
2022-09-03T09:45:02.357Z,995.21
2022-09-03T09:46:02.366Z,995.22
2022-09-03T09:47:02.337Z,995.20
2022-09-03T09:48:02.347Z,995.17
2022-09-03T09:49:02.312Z,995.21
2022-09-03T09:50:02.329Z,995.21
2022-09-03T09:51:02.288Z,995.16
2022-09-03T09:52:02.281Z,995.17
2022-09-03T09:53:02.282Z,995.15
2022-09-03T09:54:02.313Z,995.11
2022-09-03T09:55:02.254Z,995.16
2022-09-03T09:56:02.228Z,995.22
2022-09-03T09:57:02.220Z,995.24
2022-09-03T09:58:02.210Z,995.20
2022-09-03T09:59:02.209Z,995.25
2022-09-03T10:00:02.253Z,995.21
2022-09-03T10:01:02.172Z,995.18
2022-09-03T10:02:02.226Z,995.19
2022-09-03T10:03:02.171Z,995.16
2022-09-03T10:04:02.144Z,995.18
2022-09-03T10:05:02.152Z,995.21
2022-09-03T10:06:02.110Z,995.17
2022-09-03T10:07:02.107Z,995.20
2022-09-03T10:08:02.092Z,995.24
2022-09-03T10:09:02.076Z,995.25
2022-09-03T10:10:02.056Z,995.20
2022-09-03T10:11:02.084Z,995.21
2022-09-03T10:12:02.045Z,995.26
2022-09-03T10:13:02.034Z,995.24
2022-09-03T10:14:02.025Z,995.28
2022-09-03T10:15:02.024Z,995.30
2022-09-03T10:16:02.118Z,995.30
2022-09-03T10:17:01.978Z,995.31
2022-09-03T10:18:01.975Z,995.29
2022-09-03T10:19:01.959Z,995.30
2022-09-03T10:20:01.945Z,995.35
2022-09-03T10:21:01.951Z,995.30
2022-09-03T10:22:02.086Z,995.34
2022-09-03T10:23:01.922Z,995.31
2022-09-03T10:24:06.609Z,995.41
2022-09-03T10:25:02.900Z,995.36
2022-09-03T10:26:01.879Z,995.32
2022-09-03T10:27:01.909Z,995.34
2022-09-03T10:28:01.848Z,995.29
2022-09-03T10:29:01.862Z,995.27
2022-09-03T10:30:01.838Z,995.27
2022-09-03T10:31:01.896Z,995.31
2022-09-03T10:32:01.811Z,995.27
2022-09-03T10:33:01.819Z,995.23
2022-09-03T10:34:01.791Z,995.28
2022-09-03T10:35:01.780Z,995.24
2022-09-03T10:36:01.752Z,995.23
2022-09-03T10:37:01.752Z,995.24
2022-09-03T10:38:01.751Z,995.24
2022-09-03T10:39:01.772Z,995.22
2022-09-03T10:40:01.771Z,995.28
2022-09-03T10:41:01.724Z,995.29
2022-09-03T10:42:01.715Z,995.33
2022-09-03T10:43:01.681Z,995.35
2022-09-03T10:44:01.667Z,995.37
2022-09-03T10:45:01.699Z,995.33
2022-09-03T10:46:01.704Z,995.34
2022-09-03T10:47:01.637Z,995.34
2022-09-03T10:48:01.623Z,995.31
2022-09-03T10:49:01.627Z,995.32
2022-09-03T10:50:01.590Z,995.31
2022-09-03T10:51:01.604Z,995.37
2022-09-03T10:52:01.573Z,995.32
2022-09-03T10:53:01.584Z,995.27
2022-09-03T10:54:01.568Z,995.28
2022-09-03T10:55:01.536Z,995.25
2022-09-03T10:56:01.530Z,995.31
2022-09-03T10:57:01.728Z,995.33
2022-09-03T10:58:01.557Z,995.34
2022-09-03T10:59:01.500Z,995.33
2022-09-03T11:00:01.505Z,995.27
2022-09-03T11:01:01.535Z,995.34
2022-09-03T11:02:01.497Z,995.31
2022-09-03T11:03:01.542Z,995.29
2022-09-03T11:04:01.455Z,995.28
2022-09-03T11:05:01.429Z,995.27
2022-09-03T11:06:01.485Z,995.25
2022-09-03T11:07:01.390Z,995.29
2022-09-03T11:08:01.419Z,995.35
2022-09-03T11:09:06.363Z,995.24
2022-09-03T11:10:02.370Z,995.21
2022-09-03T11:11:01.350Z,995.24
2022-09-03T11:12:01.340Z,995.20
2022-09-03T11:13:01.449Z,995.19
2022-09-03T11:14:01.360Z,995.20
2022-09-03T11:15:01.311Z,995.17
2022-09-03T11:16:01.401Z,995.11
2022-09-03T11:17:01.321Z,995.16
2022-09-03T11:18:01.278Z,995.17
2022-09-03T11:19:01.264Z,995.24
2022-09-03T11:20:01.292Z,995.27
2022-09-03T11:21:02.280Z,995.20
2022-09-03T11:22:01.232Z,995.19
2022-09-03T11:23:01.212Z,995.26
2022-09-03T11:24:01.913Z,995.25
2022-09-03T11:25:01.187Z,995.21
2022-09-03T11:26:01.272Z,995.21
2022-09-03T11:27:01.215Z,995.19
2022-09-03T11:28:01.155Z,995.18
2022-09-03T11:29:01.156Z,995.16
2022-09-03T11:30:01.146Z,995.18
2022-09-03T11:31:01.225Z,995.14
2022-09-03T11:32:01.115Z,995.12
2022-09-03T11:33:01.148Z,995.17
2022-09-03T11:34:01.107Z,995.13
2022-09-03T11:35:01.149Z,995.09
2022-09-03T11:36:01.099Z,995.11
2022-09-03T11:37:01.141Z,995.07
2022-09-03T11:38:01.084Z,995.12
2022-09-03T11:39:01.097Z,995.11
2022-09-03T11:40:01.063Z,995.08
2022-09-03T11:41:01.054Z,995.09
2022-09-03T11:42:01.008Z,995.09
2022-09-03T11:43:01.020Z,995.07
2022-09-03T11:44:04.481Z,995.07
2022-09-03T11:45:00.969Z,995.08
2022-09-03T11:46:01.016Z,995.10
2022-09-03T11:47:00.952Z,995.08
2022-09-03T11:48:00.953Z,995.14
2022-09-03T11:49:00.963Z,995.11
2022-09-03T11:50:00.910Z,995.20
2022-09-03T11:51:00.908Z,995.15
2022-09-03T11:52:00.934Z,995.12
2022-09-03T11:53:00.887Z,995.15
2022-09-03T11:54:00.861Z,995.17
2022-09-03T11:55:00.874Z,995.15
2022-09-03T11:56:01.055Z,995.14
2022-09-03T11:57:00.835Z,995.09
2022-09-03T11:58:00.823Z,995.10
2022-09-03T11:59:00.833Z,995.11
2022-09-03T12:00:00.830Z,995.10
2022-09-03T12:01:00.825Z,995.05
2022-09-03T12:02:00.822Z,995.12
2022-09-03T12:03:00.825Z,995.15
2022-09-03T12:04:00.775Z,995.04
2022-09-03T12:05:00.831Z,995.07
2022-09-03T12:06:00.755Z,995.13
2022-09-03T12:07:00.721Z,995.04
2022-09-03T12:08:04.215Z,995.10
2022-09-03T12:09:01.732Z,995.16
2022-09-03T12:10:00.678Z,995.13
2022-09-03T12:11:00.673Z,995.07
2022-09-03T12:12:00.708Z,995.06
2022-09-03T12:13:01.366Z,995.08
2022-09-03T12:14:00.656Z,995.11
2022-09-03T12:15:00.934Z,995.13
2022-09-03T12:16:00.655Z,995.15
2022-09-03T12:17:00.634Z,995.03
2022-09-03T12:18:00.612Z,995.08
2022-09-03T12:19:00.591Z,995.06
2022-09-03T12:20:00.675Z,995.01
2022-09-03T12:21:00.560Z,994.98
2022-09-03T12:22:00.549Z,995.04
2022-09-03T12:23:00.562Z,995.03
2022-09-03T12:24:00.522Z,995.07
2022-09-03T12:25:00.552Z,994.99
2022-09-03T12:26:00.500Z,995.07
2022-09-03T12:27:00.509Z,995.00
2022-09-03T12:28:00.461Z,994.94